Time;durP1;ratioP1;P1;durP2;ratioP2;P2;SDS_P1;SDS_P2;PMS_P1;PMS_P2;Temp;Humidity;BMP_temperature;BMP_pressure;BME280_temperature;BME280_humidity;BME280_pressure;Samples;Min_cycle;Max_cycle;Signal;HPM_P1;HPM_P2
2024/03/27 00:02:06;;;;;;;7.32;6.63;;;;;;;8.53;61.67;95544.81;5047952;28;20037;-74
2024/03/27 00:04:32;;;;;;;6.90;6.28;;;;;;;8.45;61.58;95537.47;5052749;28;20492;-74
2024/03/27 00:06:58;;;;;;;8.93;6.38;;;;;;;8.48;61.70;95550.28;5074809;28;20110;-73
2024/03/27 00:09:23;;;;;;;7.35;6.47;;;;;;;8.27;61.75;95510.41;5063742;28;20095;-74
2024/03/27 00:11:50;;;;;;;8.65;7.00;;;;;;;8.52;61.80;95548.59;5068243;28;20040;-74
2024/03/27 00:14:19;;;;;;;8.98;6.78;;;;;;;8.54;61.90;95554.47;5040735;28;20100;-74
2024/03/27 00:16:44;;;;;;;8.90;7.15;;;;;;;8.39;62.43;95536.75;5066074;28;20048;-74
2024/03/27 00:19:13;;;;;;;7.45;6.75;;;;;;;8.47;62.11;95551.38;5046335;28;20025;-74
2024/03/27 00:21:39;;;;;;;7.00;6.30;;;;;;;8.38;62.52;95545.88;5065269;28;20036;-74
2024/03/27 00:24:05;;;;;;;7.05;6.35;;;;;;;8.38;62.31;95545.09;5055587;28;20108;-74
2024/03/27 00:26:31;;;;;;;6.82;6.13;;;;;;;8.33;63.41;95541.41;5063527;28;20063;-74
2024/03/27 00:28:57;;;;;;;7.82;6.65;;;;;;;8.28;63.19;95540.72;5063675;28;20028;-74
2024/03/27 00:31:23;;;;;;;7.57;6.85;;;;;;;8.26;63.22;95543.66;5077797;28;20032;-74
2024/03/27 00:33:49;;;;;;;8.10;6.68;;;;;;;8.05;63.43;95512.91;5072028;28;20028;-74
2024/03/27 00:36:14;;;;;;;7.72;6.82;;;;;;;8.18;62.99;95547.00;5063008;28;20375;-74
2024/03/27 00:38:40;;;;;;;6.82;6.13;;;;;;;8.08;63.85;95524.94;5039816;28;20036;-75
2024/03/27 00:41:06;;;;;;;6.82;6.18;;;;;;;8.12;62.92;95537.44;5071272;28;20090;-75
2024/03/27 00:43:32;;;;;;;7.85;6.40;;;;;;;8.08;63.84;95535.66;5049764;28;20581;-75
2024/03/27 00:46:01;;;;;;;6.88;5.97;;;;;;;8.07;63.56;95545.59;5064619;28;20031;-75
2024/03/27 00:48:27;;;;;;;7.07;6.38;;;;;;;7.90;63.48;95523.88;5059808;28;20090;-76
2024/03/27 00:50:52;;;;;;;7.20;6.25;;;;;;;8.07;64.27;95542.91;5046490;28;20040;-74
2024/03/27 00:53:18;;;;;;;8.13;6.88;;;;;;;8.06;64.10;95554.72;5054411;28;20032;-74
2024/03/27 00:55:56;;;;;;;7.47;6.22;;;;;;;7.94;64.74;95540.97;5070679;28;20071;-74
2024/03/27 00:58:21;;;;;;;7.07;6.28;;;;;;;8.01;65.27;95541.38;5064055;28;20033;-75
2024/03/27 01:00:47;;;;;;;7.53;6.75;;;;;;;7.97;64.94;95545.75;5065508;28;20024;-74
2024/03/27 01:03:13;;;;;;;7.15;6.45;;;;;;;7.88;64.44;95542.16;5052336;28;20547;-75
2024/03/27 01:05:42;;;;;;;8.23;6.90;;;;;;;7.93;64.54;95547.44;5066781;28;20028;-75
2024/03/27 01:08:11;;;;;;;8.27;6.70;;;;;;;7.92;65.21;95548.50;5044867;28;20039;-74
2024/03/27 01:10:38;;;;;;;7.80;6.72;;;;;;;7.74;65.42;95525.22;5059372;28;20024;-75
2024/03/27 01:13:09;;;;;;;8.80;6.85;;;;;;;7.90;65.87;95550.69;5052751;28;20033;-75
2024/03/27 01:15:34;;;;;;;9.45;6.43;;;;;;;7.80;65.93;95529.41;5049062;28;20041;-76
2024/03/27 01:18:00;;;;;;;8.30;6.15;;;;;;;7.82;65.77;95543.28;5067605;28;20028;-75
2024/03/27 01:20:26;;;;;;;7.32;6.53;;;;;;;7.81;65.44;95541.72;5062607;28;20043;-75
2024/03/27 01:22:52;;;;;;;7.50;6.75;;;;;;;7.80;65.54;95534.75;5050694;28;20120;-75
2024/03/27 01:25:18;;;;;;;7.63;6.90;;;;;;;7.79;65.91;95527.81;5068379;28;20108;-75
2024/03/27 01:27:44;;;;;;;7.40;6.22;;;;;;;7.72;65.91;95522.03;5058555;28;20021;-75
2024/03/27 01:30:12;;;;;;;8.10;6.72;;;;;;;7.70;66.34;95512.72;5057545;28;20390;-76
2024/03/27 01:32:37;;;;;;;7.68;6.90;;;;;;;7.77;66.63;95519.25;5064657;28;20550;-75
2024/03/27 01:35:04;;;;;;;7.47;6.78;;;;;;;7.76;65.75;95517.69;5020143;28;20043;-75
2024/03/27 01:37:29;;;;;;;7.43;6.72;;;;;;;7.83;66.19;95509.28;5053584;28;20033;-75
2024/03/27 01:39:55;;;;;;;8.80;7.60;;;;;;;7.81;66.31;95512.25;5041987;28;20055;-75
2024/03/27 01:42:21;;;;;;;8.65;7.75;;;;;;;7.78;65.70;95510.16;5045019;28;20017;-74
2024/03/27 01:44:46;;;;;;;7.80;7.03;;;;;;;7.73;65.43;95501.38;5076266;28;20044;-75
2024/03/27 01:47:12;;;;;;;9.05;7.53;;;;;;;7.58;66.30;95481.03;5052391;28;20028;-74
2024/03/27 01:49:39;;;;;;;8.10;7.28;;;;;;;7.57;65.95;95482.91;5050166;28;20488;-74
2024/03/27 01:52:05;;;;;;;9.88;8.02;;;;;;;7.66;66.36;95491.06;5036867;28;20028;-75
2024/03/27 01:54:31;;;;;;;9.45;8.48;;;;;;;7.62;66.44;95473.97;5068919;22;20082;-74
2024/03/27 01:56:57;;;;;;;7.68;6.97;;;;;;;7.61;66.20;95478.53;5051415;28;20024;-74
2024/03/27 01:59:23;;;;;;;8.43;7.57;;;;;;;7.54;66.73;95474.63;5047490;28;20505;-74
2024/03/27 02:01:49;;;;;;;8.85;7.68;;;;;;;7.56;67.05;95470.56;5051521;28;20024;-76
2024/03/27 02:04:14;;;;;;;8.20;7.18;;;;;;;7.49;67.02;95464.78;5065356;28;20036;-76
2024/03/27 02:06:40;;;;;;;8.98;8.07;;;;;;;7.48;66.42;95452.50;5025012;28;20021;-76
2024/03/27 02:09:06;;;;;;;9.45;8.45;;;;;;;7.47;66.96;95444.75;5036216;28;20032;-76
2024/03/27 02:11:32;;;;;;;9.02;8.10;;;;;;;7.41;67.86;95430.66;5040274;28;20110;-76
2024/03/27 02:13:57;;;;;;;8.40;7.40;;;;;;;7.35;67.05;95414.97;5055273;28;20498;-75
2024/03/27 02:16:23;;;;;;;8.95;7.63;;;;;;;7.32;68.25;95412.88;5061730;28;20021;-75
2024/03/27 02:18:48;;;;;;;9.10;8.20;;;;;;;7.30;68.27;95415.06;5061016;28;20032;-77
2024/03/27 02:21:14;;;;;;;9.38;7.95;;;;;;;7.41;68.17;95409.25;5047268;28;20028;-76
2024/03/27 02:23:50;;;;;;;9.05;7.72;;;;;;;7.37;67.74;95394.06;5037947;28;20092;-75
2024/03/27 02:26:17;;;;;;;8.18;7.25;;;;;;;7.38;67.96;95393.75;5053744;28;20488;-74
2024/03/27 02:28:45;;;;;;;8.70;7.82;;;;;;;7.34;68.50;95387.41;5032668;28;20499;-74
2024/03/27 02:31:11;;;;;;;8.43;7.43;;;;;;;7.39;68.92;95378.50;5037607;28;20029;-74
2024/03/27 02:33:37;;;;;;;8.38;7.53;;;;;;;7.22;68.87;95340.78;4999870;28;20395;-74
2024/03/27 02:36:03;;;;;;;8.43;7.63;;;;;;;7.45;68.44;95371.97;5057980;28;20037;-74
2024/03/27 02:38:28;;;;;;;8.98;7.45;;;;;;;7.34;68.67;95349.13;5049148;28;20103;-75
2024/03/27 02:40:54;;;;;;;8.48;7.57;;;;;;;7.41;68.03;95358.38;5042776;28;20043;-75
2024/03/27 02:43:19;;;;;;;8.88;7.80;;;;;;;7.33;67.75;95347.53;5049979;28;20032;-74
2024/03/27 02:45:45;;;;;;;7.05;6.40;;;;;;;7.29;68.43;95323.25;5044018;28;20029;-74
2024/03/27 02:48:10;;;;;;;7.85;6.90;;;;;;;7.34;68.21;95333.06;5033735;28;20020;-75
2024/03/27 02:50:35;;;;;;;7.30;6.60;;;;;;;7.39;68.75;95325.75;5061408;28;20032;-75
2024/03/27 02:53:01;;;;;;;10.55;7.00;;;;;;;7.46;68.27;95338.75;5018024;28;20029;-75
2024/03/27 02:55:26;;;;;;;10.23;7.95;;;;;;;7.40;68.41;95347.94;5025481;28;20493;-75
2024/03/27 02:57:51;;;;;;;8.43;7.45;;;;;;;7.31;68.51;95320.28;5039187;28;20037;-76
2024/03/27 03:00:17;;;;;;;7.70;6.90;;;;;;;7.37;68.96;95321.78;5020747;28;20510;-76
2024/03/27 03:02:42;;;;;;;7.97;7.18;;;;;;;7.31;68.47;95339.81;5063903;28;20077;-76
2024/03/27 03:05:08;;;;;;;7.90;6.90;;;;;;;7.26;69.23;95323.81;5024601;28;20403;-76
2024/03/27 03:07:33;;;;;;;7.97;7.07;;;;;;;7.25;68.24;95318.78;5039599;28;20032;-74
2024/03/27 03:09:59;;;;;;;7.50;6.80;;;;;;;7.29;69.12;95325.13;5037498;28;20089;-75
2024/03/27 03:12:24;;;;;;;7.25;6.55;;;;;;;7.34;68.23;95333.06;5061816;28;20108;-76
2024/03/27 03:14:50;;;;;;;7.45;6.72;;;;;;;7.29;68.36;95319.78;5058025;28;20044;-75
2024/03/27 03:17:15;;;;;;;8.15;7.28;;;;;;;7.26;69.06;95317.69;5029037;28;20033;-75
2024/03/27 03:19:41;;;;;;;7.32;6.63;;;;;;;7.29;69.63;95333.16;5036534;28;20032;-75
2024/03/27 03:22:08;;;;;;;8.38;6.70;;;;;;;7.18;68.38;95313.00;5041247;28;20028;-76
2024/03/27 03:24:34;;;;;;;7.70;6.60;;;;;;;7.18;68.93;95310.34;5036369;28;20496;-75
2024/03/27 03:26:59;;;;;;;10.13;6.75;;;;;;;7.18;69.68;95313.81;5009913;28;20016;-74
2024/03/27 03:29:25;;;;;;;8.48;6.60;;;;;;;7.01;69.08;95288.66;5036429;28;20040;-75
2024/03/27 03:31:50;;;;;;;9.55;7.40;;;;;;;7.05;69.69;95303.84;5044415;28;20033;-75
2024/03/27 03:34:15;;;;;;;8.15;6.95;;;;;;;7.09;69.89;95325.47;5036715;28;20412;-77
2024/03/27 03:36:41;;;;;;;7.38;6.68;;;;;;;6.98;69.49;95320.28;5028694;28;20663;-76
2024/03/27 03:39:07;;;;;;;8.50;6.22;;;;;;;7.00;69.70;95324.56;5040246;28;20037;-76
2024/03/27 03:41:33;;;;;;;7.18;6.00;;;;;;;7.08;69.94;95331.91;5041682;28;20025;-76
2024/03/27 03:43:58;;;;;;;7.70;6.47;;;;;;;7.19;70.19;95341.38;5022923;28;20033;-76
2024/03/27 03:46:23;;;;;;;9.45;6.53;;;;;;;7.12;69.56;95325.66;5026755;28;20502;-77
2024/03/27 03:48:49;;;;;;;7.15;6.07;;;;;;;7.07;69.34;95322.31;5020451;28;20045;-76
2024/03/27 03:51:14;;;;;;;7.32;5.82;;;;;;;6.99;69.97;95305.03;5021647;28;20028;-76
2024/03/27 03:53:39;;;;;;;7.93;5.95;;;;;;;7.09;69.83;95328.16;5021736;28;20128;-75
2024/03/27 03:56:05;;;;;;;6.70;6.00;;;;;;;6.93;70.28;95323.03;5023136;28;20028;-77
2024/03/27 03:58:31;;;;;;;7.35;6.38;;;;;;;7.08;69.77;95334.56;5042209;28;20037;-76
2024/03/27 04:00:56;;;;;;;7.65;5.85;;;;;;;7.01;69.63;95328.81;5036818;28;20032;-76
2024/03/27 04:03:21;;;;;;;7.10;6.07;;;;;;;6.91;70.52;95314.50;5010181;28;20033;-75
2024/03/27 04:05:47;;;;;;;7.60;6.60;;;;;;;7.08;69.61;95340.72;5039799;28;20052;-77
2024/03/27 04:08:12;;;;;;;8.25;6.45;;;;;;;7.04;69.65;95342.41;5020307;28;20087;-76
2024/03/27 04:10:41;;;;;;;9.15;6.32;;;;;;;7.04;69.82;95334.38;5043076;28;20490;-76
2024/03/27 04:13:07;;;;;;;6.82;6.13;;;;;;;6.95;70.31;95326.19;5022113;28;20044;-76
2024/03/27 04:15:32;;;;;;;7.28;6.55;;;;;;;6.89;69.97;95346.09;5060956;28;20017;-76
2024/03/27 04:17:57;;;;;;;10.20;7.90;;;;;;;6.92;70.08;95369.59;5038303;28;20401;-76
2024/03/27 04:20:23;;;;;;;8.68;7.78;;;;;;;6.73;70.15;95366.13;5025035;28;20459;-76
2024/03/27 04:22:48;;;;;;;7.70;6.95;;;;;;;6.49;69.93;95329.88;5038954;28;20044;-76
2024/03/27 04:25:14;;;;;;;8.88;7.97;;;;;;;6.69;70.91;95349.09;5004459;28;20507;-76
2024/03/27 04:27:39;;;;;;;9.93;8.18;;;;;;;6.69;70.75;95333.03;5040667;28;20033;-74
2024/03/27 04:30:07;;;;;;;12.10;8.73;;;;;;;6.67;70.21;95329.88;5054149;28;20024;-77
2024/03/27 04:32:32;;;;;;;10.07;8.43;;;;;;;6.65;70.70;95325.88;5009336;28;20029;-77
2024/03/27 04:34:58;;;;;;;9.70;7.90;;;;;;;6.65;69.80;95326.66;5024148;28;20024;-75
2024/03/27 04:37:23;;;;;;;8.05;7.25;;;;;;;6.69;70.00;95317.00;5057831;28;20033;-78
2024/03/27 04:39:49;;;;;;;7.65;6.30;;;;;;;6.62;70.08;95302.41;5038958;28;20031;-77
2024/03/27 04:42:16;;;;;;;9.38;7.72;;;;;;;6.58;70.48;95304.84;5049976;28;20471;-76
2024/03/27 04:44:41;;;;;;;11.00;7.80;;;;;;;6.57;70.60;95319.31;5038287;28;20052;-77
2024/03/27 04:47:06;;;;;;;9.43;7.57;;;;;;;6.61;70.26;95322.19;5062843;28;20114;-76
2024/03/27 04:49:32;;;;;;;8.20;7.40;;;;;;;6.56;71.09;95312.34;5025718;28;20716;-76
2024/03/27 04:51:57;;;;;;;8.90;8.02;;;;;;;6.52;70.35;95305.22;5024217;28;20036;-76
2024/03/27 04:54:23;;;;;;;10.80;7.97;;;;;;;6.55;70.36;95316.13;5029376;28;20028;-76
2024/03/27 04:56:48;;;;;;;9.52;7.95;;;;;;;6.46;71.18;95323.22;5043293;28;20095;-76
2024/03/27 04:59:13;;;;;;;8.00;7.30;;;;;;;6.40;71.02;95318.22;5027294;28;20020;-76
2024/03/27 05:01:39;;;;;;;10.70;8.43;;;;;;;6.33;70.74;95310.56;5007238;28;20138;-77
2024/03/27 05:04:04;;;;;;;8.45;7.60;;;;;;;6.23;70.58;95292.78;5029979;28;20591;-76
2024/03/27 05:06:29;;;;;;;9.02;7.68;;;;;;;6.32;71.03;95295.63;5021166;28;20072;-77
2024/03/27 05:08:55;;;;;;;11.23;9.18;;;;;;;6.28;70.97;95284.69;5024262;28;20031;-76
2024/03/27 05:11:20;;;;;;;9.45;8.43;;;;;;;6.21;71.50;95262.06;5045377;28;20044;-77
2024/03/27 05:13:46;;;;;;;10.35;8.25;;;;;;;6.38;71.37;95293.66;5058203;28;20024;-76
2024/03/27 05:16:12;;;;;;;10.70;9.70;;;;;;;6.38;70.86;95299.78;5060074;28;20083;-77
2024/03/27 05:18:38;;;;;;;12.55;11.25;;;;;;;6.37;71.23;95300.88;5035058;28;20482;-76
2024/03/27 05:21:04;;;;;;;15.00;11.98;;;;;;;6.37;71.56;95298.19;5038416;28;20120;-76
2024/03/27 05:23:29;;;;;;;14.43;11.38;;;;;;;6.39;70.72;95295.25;5038484;28;20052;-76
2024/03/27 05:25:55;;;;;;;14.57;10.55;;;;;;;6.37;71.11;95292.84;5034996;28;20605;-76
2024/03/27 05:28:20;;;;;;;12.05;10.02;;;;;;;6.33;71.40;95286.50;5039110;28;20100;-76
2024/03/27 05:30:46;;;;;;;10.05;9.00;;;;;;;6.41;71.48;95293.09;5060351;28;20502;-76
2024/03/27 05:33:11;;;;;;;11.45;9.50;;;;;;;6.20;71.68;95247.16;5046216;28;20029;-76
2024/03/27 05:35:37;;;;;;;11.15;9.20;;;;;;;6.25;71.06;95247.84;5035038;28;20037;-77
2024/03/27 05:38:02;;;;;;;15.65;9.55;;;;;;;6.42;71.78;95268.72;5035859;28;20115;-76
2024/03/27 05:40:28;;;;;;;11.52;10.25;;;;;;;6.26;71.43;95254.00;5056102;28;20059;-76
2024/03/27 05:42:53;;;;;;;12.80;10.38;;;;;;;6.32;72.30;95282.25;5011227;28;20060;-76
2024/03/27 05:45:18;;;;;;;13.98;9.93;;;;;;;6.34;72.41;95276.63;5050896;28;20106;-76
2024/03/27 05:47:44;;;;;;;10.10;8.73;;;;;;;6.40;72.30;95294.16;5035638;28;20108;-75
2024/03/27 05:50:09;;;;;;;11.60;8.85;;;;;;;6.46;72.26;95287.66;5037460;28;20483;-76
2024/03/27 05:52:36;;;;;;;11.45;8.75;;;;;;;6.51;72.31;95309.75;5022047;28;20021;-77
2024/03/27 05:55:02;;;;;;;12.80;8.07;;;;;;;6.51;72.06;95320.44;5017424;28;20392;-76
2024/03/27 05:57:27;;;;;;;8.43;7.50;;;;;;;6.44;72.05;95312.00;5013694;28;20021;-76
2024/03/27 05:59:53;;;;;;;10.02;7.53;;;;;;;6.46;72.36;95317.88;5037909;28;20049;-76
2024/03/27 06:02:18;;;;;;;9.60;7.50;;;;;;;6.47;72.64;95308.75;5040788;28;20029;-76
2024/03/27 06:04:45;;;;;;;10.15;7.78;;;;;;;6.60;72.05;95300.03;5040793;28;20122;-76
2024/03/27 06:07:10;;;;;;;10.45;8.00;;;;;;;6.69;72.07;95295.59;5039000;28;20033;-76
2024/03/27 06:09:36;;;;;;;9.48;7.50;;;;;;;6.83;72.65;95314.38;5026371;28;20504;-76
2024/03/27 06:12:01;;;;;;;8.70;7.45;;;;;;;6.86;72.24;95311.91;5024388;28;20057;-77
2024/03/27 06:14:29;;;;;;;10.55;9.30;;;;;;;6.95;72.22;95328.88;5033835;28;20047;-76
2024/03/27 06:16:54;;;;;;;10.50;9.02;;;;;;;6.49;72.09;95249.69;5026128;28;20025;-76
2024/03/27 06:19:19;;;;;;;13.40;10.52;;;;;;;6.70;72.25;95289.16;5039143;28;20453;-76
2024/03/27 06:21:45;;;;;;;12.82;9.00;;;;;;;6.93;72.22;95301.63;5052132;28;20032;-77
2024/03/27 06:24:10;;;;;;;8.32;7.53;;;;;;;7.07;71.82;95306.25;5018569;28;20120;-76
2024/03/27 06:26:35;;;;;;;8.82;7.30;;;;;;;7.07;71.68;95307.00;5037583;28;20473;-76
2024/03/27 06:29:01;;;;;;;8.68;7.80;;;;;;;7.15;71.66;95309.03;5044532;28;20037;-78
2024/03/27 06:31:26;;;;;;;11.30;7.72;;;;;;;7.16;71.81;95293.78;5018971;28;20050;-76
2024/03/27 06:33:52;;;;;;;8.32;7.10;;;;;;;7.35;71.20;95313.25;5022136;28;20048;-76
2024/03/27 06:36:17;;;;;;;8.93;7.50;;;;;;;7.38;71.53;95301.94;5022304;28;20121;-76
2024/03/27 06:38:42;;;;;;;8.20;6.97;;;;;;;7.34;70.57;95280.34;5040887;28;20412;-77
2024/03/27 06:41:08;;;;;;;8.05;6.40;;;;;;;7.57;71.25;95300.00;5020853;28;20025;-76
2024/03/27 06:43:33;;;;;;;8.88;6.75;;;;;;;7.55;70.88;95302.19;5033391;28;20049;-77
2024/03/27 06:45:59;;;;;;;8.18;7.38;;;;;;;7.68;69.49;95306.75;5048141;28;20024;-77
2024/03/27 06:48:32;;;;;;;10.05;7.60;;;;;;;7.58;70.44;95280.16;5053783;28;20037;-77
2024/03/27 06:50:58;;;;;;;8.90;7.50;;;;;;;7.82;70.11;95299.50;5060035;28;20033;-76
2024/03/27 06:53:24;;;;;;;11.48;7.70;;;;;;;7.85;70.44;95285.53;5022239;28;20036;-76
2024/03/27 06:55:50;;;;;;;11.15;9.20;;;;;;;7.98;69.98;95276.69;5036031;28;20086;-76
2024/03/27 06:58:15;;;;;;;9.90;7.95;;;;;;;8.27;69.86;95298.63;5023784;28;20476;-77
2024/03/27 07:00:41;;;;;;;9.70;7.53;;;;;;;8.39;70.43;95278.53;5055314;28;20041;-77
2024/03/27 07:03:06;;;;;;;9.27;7.57;;;;;;;8.57;69.65;95270.34;5057154;28;20024;-77
2024/03/27 07:05:31;;;;;;;7.80;6.70;;;;;;;8.66;70.20;95265.06;5023742;28;20087;-76
2024/03/27 07:07:57;;;;;;;9.00;8.10;;;;;;;8.87;70.44;95279.56;5040383;28;20127;-77
2024/03/27 07:10:22;;;;;;;9.85;8.20;;;;;;;8.90;71.25;95268.22;5041072;28;20043;-77
2024/03/27 07:12:48;;;;;;;7.57;6.85;;;;;;;8.92;70.71;95244.56;5026193;28;20029;-77
2024/03/27 07:15:13;;;;;;;8.70;7.38;;;;;;;9.12;70.35;95257.50;5040889;28;20463;-77
2024/03/27 07:17:38;;;;;;;7.60;6.30;;;;;;;9.18;69.96;95245.50;5035260;28;20025;-76
2024/03/27 07:20:04;;;;;;;6.28;4.72;;;;;;;9.41;69.08;95257.78;5042246;28;20033;-77
2024/03/27 07:22:30;;;;;;;4.45;3.90;;;;;;;9.63;67.41;95244.31;5036624;28;20066;-76
2024/03/27 07:24:55;;;;;;;5.90;3.80;;;;;;;9.74;65.54;95228.69;5034581;28;20106;-77
2024/03/27 07:27:20;;;;;;;5.80;3.25;;;;;;;9.95;64.41;95234.28;5024819;28;20461;-76
2024/03/27 07:29:46;;;;;;;5.13;3.25;;;;;;;10.11;63.66;95230.88;5046317;28;20033;-78
2024/03/27 07:32:11;;;;;;;5.72;3.33;;;;;;;10.30;62.34;95225.22;5043935;28;20506;-77
2024/03/27 07:34:37;;;;;;;3.65;3.20;;;;;;;10.51;61.85;95220.78;5022040;28;20036;-78
2024/03/27 07:37:02;;;;;;;5.22;3.83;;;;;;;10.81;61.02;95235.97;5028975;28;20021;-77
2024/03/27 07:39:28;;;;;;;6.97;4.28;;;;;;;10.94;62.66;95226.16;5039670;28;20033;-77
2024/03/27 07:41:53;;;;;;;7.35;6.00;;;;;;;11.08;63.07;95224.84;5008645;28;20542;-77
2024/03/27 07:44:18;;;;;;;16.38;8.90;;;;;;;11.11;62.47;95213.44;5040106;28;20119;-77
2024/03/27 07:46:44;;;;;;;10.82;8.63;;;;;;;11.32;62.58;95218.16;5025558;28;20021;-77
2024/03/27 07:49:09;;;;;;;17.67;13.13;;;;;;;11.56;62.12;95223.78;5024811;28;20297;-77
2024/03/27 07:51:35;;;;;;;7.03;4.00;;;;;;;11.59;61.65;95206.97;5044821;28;20422;-77
2024/03/27 07:54:01;;;;;;;7.53;4.00;;;;;;;11.71;61.70;95204.41;5074490;22;20066;-76
2024/03/27 07:56:26;;;;;;;4.43;3.50;;;;;;;11.74;61.34;95201.03;5069032;28;20060;-76
2024/03/27 07:58:53;;;;;;;4.18;2.85;;;;;;;11.96;60.37;95216.97;5065841;28;20534;-77
2024/03/27 08:01:18;;;;;;;3.90;2.80;;;;;;;12.22;58.97;95225.69;5064399;28;20031;-76
2024/03/27 08:03:44;;;;;;;5.10;4.53;;;;;;;12.23;58.17;95216.47;5031134;28;20036;-77
2024/03/27 08:06:13;;;;;;;6.88;4.95;;;;;;;12.33;60.73;95221.50;5090678;23;20663;-78
2024/03/27 08:08:39;;;;;;;10.68;5.63;;;;;;;12.28;60.96;95218.97;5077489;28;20550;-77
2024/03/27 08:11:06;;;;;;;5.97;5.03;;;;;;;12.19;60.59;95193.97;5077295;28;20016;-78
2024/03/27 08:13:32;;;;;;;6.35;5.18;;;;;;;12.36;60.01;95203.84;5097201;28;20038;-77
2024/03/27 08:15:59;;;;;;;9.63;4.70;;;;;;;12.46;59.51;95220.44;5075836;28;20033;-77
2024/03/27 08:18:24;;;;;;;7.70;5.65;;;;;;;12.45;60.65;95218.88;5053631;28;20483;-78
2024/03/27 08:20:54;;;;;;;7.63;6.20;;;;;;;12.43;60.95;95199.53;5054445;28;20024;-77
2024/03/27 08:23:19;;;;;;;7.20;5.32;;;;;;;12.53;60.32;95202.94;5058404;28;20055;-77
2024/03/27 08:25:45;;;;;;;10.13;5.38;;;;;;;12.68;59.74;95210.44;5048505;28;20475;-77
2024/03/27 08:28:10;;;;;;;6.25;5.07;;;;;;;12.53;60.00;95192.16;5061071;28;20129;-78
2024/03/27 08:30:36;;;;;;;5.78;4.65;;;;;;;12.70;59.80;95191.97;5057008;28;20020;-77
2024/03/27 08:33:01;;;;;;;5.40;4.50;;;;;;;12.86;59.12;95191.03;5073440;28;20042;-78
2024/03/27 08:35:26;;;;;;;6.20;4.90;;;;;;;12.93;58.81;95185.88;5054528;28;20028;-77
2024/03/27 08:37:52;;;;;;;5.25;4.70;;;;;;;12.87;58.47;95172.94;5061833;28;20089;-78
2024/03/27 08:40:18;;;;;;;7.03;4.40;;;;;;;12.96;58.64;95173.63;5050331;28;20028;-79
2024/03/27 08:42:43;;;;;;;7.47;4.22;;;;;;;12.98;58.41;95163.28;5056089;28;20445;-78
2024/03/27 08:45:09;;;;;;;8.40;4.68;;;;;;;13.11;58.53;95160.34;5071126;28;20112;-77
2024/03/27 08:47:34;;;;;;;4.78;3.95;;;;;;;13.17;58.70;95150.09;5069099;28;20122;-78
2024/03/27 08:49:59;;;;;;;4.40;3.70;;;;;;;13.34;58.16;95151.81;5047323;28;20490;-79
2024/03/27 08:52:25;;;;;;;5.03;3.78;;;;;;;13.48;57.70;95141.44;5051995;28;20040;-78
2024/03/27 08:54:53;;;;;;;2.83;1.90;;;;;;;13.55;54.60;95115.44;5076283;28;20028;-77
2024/03/27 08:57:19;;;;;;;3.20;2.10;;;;;;;13.80;52.65;95133.22;5058305;28;20036;-78
2024/03/27 08:59:45;;;;;;;3.33;1.90;;;;;;;13.94;52.25;95121.25;5073893;28;20388;-78
2024/03/27 09:02:10;;;;;;;2.28;1.77;;;;;;;14.05;51.42;95108.84;5064522;28;20036;-78
2024/03/27 09:04:36;;;;;;;2.72;1.80;;;;;;;14.15;51.28;95122.69;5065758;28;20024;-78
2024/03/27 09:07:02;;;;;;;4.22;1.88;;;;;;;14.44;50.87;95143.28;5059860;28;20024;-77
2024/03/27 09:09:28;;;;;;;2.55;1.70;;;;;;;14.52;50.39;95131.50;5058340;28;20042;-78
2024/03/27 09:11:53;;;;;;;3.55;1.77;;;;;;;14.67;51.26;95138.91;5058646;28;20479;-78
2024/03/27 09:14:18;;;;;;;3.35;1.80;;;;;;;14.76;50.07;95142.28;5067566;28;20033;-77
2024/03/27 09:16:44;;;;;;;4.07;1.75;;;;;;;14.98;49.52;95160.66;5082779;28;20036;-78
2024/03/27 09:19:09;;;;;;;2.83;1.50;;;;;;;14.94;49.31;95124.56;5072757;28;20037;-77
2024/03/27 09:21:35;;;;;;;4.15;2.05;;;;;;;15.15;49.39;95143.31;5055722;28;20044;-77
2024/03/27 09:24:00;;;;;;;2.55;1.40;;;;;;;15.36;49.04;95164.75;5030778;28;20082;-77
2024/03/27 09:26:25;;;;;;;2.38;1.70;;;;;;;15.33;49.03;95135.66;5044527;28;20079;-78
2024/03/27 09:28:51;;;;;;;3.17;1.30;;;;;;;15.59;49.16;95154.94;5051655;28;20024;-78
2024/03/27 09:31:16;;;;;;;2.85;1.40;;;;;;;15.61;49.23;95129.00;5058728;28;20142;-78
2024/03/27 09:33:41;;;;;;;2.58;1.50;;;;;;;15.75;48.23;95150.28;5053845;28;20031;-78
2024/03/27 09:36:14;;;;;;;3.47;1.50;;;;;;;15.99;47.38;95162.84;5078398;28;20031;-78
2024/03/27 09:38:39;;;;;;;2.95;1.60;;;;;;;15.89;47.03;95151.38;5055892;28;20040;-78
2024/03/27 09:41:05;;;;;;;3.20;1.42;;;;;;;16.01;48.19;95147.78;5050965;28;20081;-78
2024/03/27 09:43:32;;;;;;;3.75;1.80;;;;;;;16.13;46.72;95144.16;5055736;28;20475;-78
2024/03/27 09:45:58;;;;;;;2.63;1.60;;;;;;;16.21;47.65;95126.91;5035581;28;20020;-78
2024/03/27 09:48:26;;;;;;;3.03;1.50;;;;;;;16.43;46.60;95135.16;5058949;28;20394;-78
2024/03/27 09:50:53;;;;;;;3.28;1.58;;;;;;;16.55;46.57;95137.75;5061617;28;20024;-78
2024/03/27 09:53:20;;;;;;;2.08;1.40;;;;;;;16.59;45.90;95118.84;5056198;28;20475;-78
2024/03/27 09:55:46;;;;;;;2.65;1.75;;;;;;;16.70;45.82;95132.63;5074264;28;20016;-78
2024/03/27 09:58:13;;;;;;;1.63;1.50;;;;;;;16.75;45.68;95135.06;5040416;28;20543;-78
2024/03/27 10:00:39;;;;;;;1.50;1.13;;;;;;;16.81;46.12;95128.97;5048028;28;20031;-78
2024/03/27 10:03:05;;;;;;;2.53;1.30;;;;;;;16.93;45.28;95126.09;5076332;28;20037;-78
2024/03/27 10:05:34;;;;;;;1.77;1.23;;;;;;;16.96;45.72;95121.88;5058169;28;20547;-79
2024/03/27 10:08:02;;;;;;;1.58;1.48;;;;;;;17.10;45.68;95124.88;5055481;28;20039;-78
2024/03/27 10:10:29;;;;;;;2.13;1.10;;;;;;;17.11;45.46;95112.81;5050460;28;20044;-78
2024/03/27 10:12:54;;;;;;;2.17;1.45;;;;;;;17.28;44.63;95118.59;5038689;28;20249;-79
2024/03/27 10:15:19;;;;;;;3.78;1.80;;;;;;;17.36;44.87;95119.50;5042194;28;20092;-78
2024/03/27 10:17:45;;;;;;;2.67;1.60;;;;;;;17.53;45.28;95120.97;5060115;28;20126;-78
2024/03/27 10:20:10;;;;;;;2.75;1.30;;;;;;;17.59;45.22;95123.03;5069042;28;20028;-78
2024/03/27 10:22:37;;;;;;;1.60;1.50;;;;;;;17.54;45.23;95096.13;5082935;28;20058;-78
2024/03/27 10:25:05;;;;;;;1.42;1.23;;;;;;;17.77;45.12;95118.66;5073206;28;20491;-79
2024/03/27 10:27:31;;;;;;;2.10;1.27;;;;;;;17.68;44.08;95099.06;5067321;28;20430;-78
2024/03/27 10:29:56;;;;;;;3.13;1.60;;;;;;;17.92;43.48;95130.56;5054738;28;20027;-78
2024/03/27 10:32:22;;;;;;;2.17;1.10;;;;;;;17.92;43.95;95123.16;5068572;28;20147;-78
2024/03/27 10:34:49;;;;;;;2.85;1.30;;;;;;;18.05;43.84;95122.97;5071048;28;20027;-79
2024/03/27 10:37:15;;;;;;;2.38;1.45;;;;;;;18.07;43.78;95120.66;5070920;28;20028;-78
2024/03/27 10:39:45;;;;;;;3.00;1.50;;;;;;;17.93;43.04;95107.63;5058468;28;20042;-78
2024/03/27 10:42:15;;;;;;;2.95;1.20;;;;;;;17.81;43.36;95086.81;5072911;28;20041;-79
2024/03/27 10:44:43;;;;;;;1.27;1.17;;;;;;;17.99;43.31;95106.16;5082876;28;20039;-78
2024/03/27 10:47:11;;;;;;;2.28;1.33;;;;;;;18.00;43.58;95101.47;5041335;28;20055;-79
2024/03/27 10:49:38;;;;;;;3.25;1.20;;;;;;;18.06;43.96;95108.19;5074270;28;20047;-78
2024/03/27 10:52:03;;;;;;;1.63;1.17;;;;;;;18.05;43.80;95106.63;5077344;28;20024;-78
2024/03/27 10:54:30;;;;;;;1.48;1.15;;;;;;;18.07;43.23;95105.09;5068544;28;20039;-78
2024/03/27 10:56:55;;;;;;;2.25;1.23;;;;;;;17.98;42.89;95082.00;5066045;28;20065;-78
2024/03/27 10:59:21;;;;;;;5.57;1.42;;;;;;;18.16;43.16;95104.81;5045492;28;20028;-78
2024/03/27 11:01:46;;;;;;;1.20;1.10;;;;;;;18.19;42.28;95102.16;5058952;28;20455;-78
2024/03/27 11:04:14;;;;;;;1.48;1.08;;;;;;;18.19;42.61;95095.94;5048790;28;20060;-79
2024/03/27 11:06:40;;;;;;;1.90;1.20;;;;;;;18.26;42.53;95090.56;5061355;28;20409;-78
2024/03/27 11:09:14;;;;;;;1.40;1.10;;;;;;;18.16;42.63;95080.31;5069527;28;20036;-78
2024/03/27 11:11:39;;;;;;;1.92;1.38;;;;;;;18.12;42.81;95063.16;5045856;28;20028;-78
2024/03/27 11:14:09;;;;;;;3.38;1.33;;;;;;;18.10;42.71;95066.25;5056518;28;20044;-78
2024/03/27 11:16:36;;;;;;;2.10;1.15;;;;;;;18.02;43.32;95064.56;5078544;28;20071;-78
2024/03/27 11:19:06;;;;;;;1.98;1.00;;;;;;;18.18;42.63;95078.03;5049216;28;20498;-78
2024/03/27 11:21:32;;;;;;;1.75;1.20;;;;;;;18.13;42.96;95079.13;5058976;28;20052;-78
2024/03/27 11:24:00;;;;;;;2.17;1.17;;;;;;;18.23;42.77;95096.75;5063071;28;20115;-79
2024/03/27 11:26:32;;;;;;;1.95;1.30;;;;;;;18.29;43.35;95095.28;5063997;28;20024;-79
2024/03/27 11:28:58;;;;;;;2.30;1.20;;;;;;;18.37;43.06;95086.03;5058859;28;20027;-79
2024/03/27 11:31:23;;;;;;;1.80;1.27;;;;;;;18.35;42.72;95077.47;5061899;28;20589;-78